Time;durP1;ratioP1;P1;durP2;ratioP2;P2;SDS_P1;SDS_P2;PMS_P1;PMS_P2;Temp;Humidity;BMP_temperature;BMP_pressure;BME280_temperature;BME280_humidity;BME280_pressure;Samples;Min_cycle;Max_cycle;Signal;HPM_P1;HPM_P2
2023/04/04 00:00:51;;;;;;;4.88;1.17;;;;;;;;;;5022322;28;20045;-68
2023/04/04 00:03:16;;;;;;;5.10;1.70;;;;;;;;;;5022933;28;20545;-67
2023/04/04 00:05:41;;;;;;;5.80;1.23;;;;;;;;;;5026357;28;20145;-67
2023/04/04 00:08:06;;;;;;;5.90;1.50;;;;;;;;;;5028778;28;20076;-68
2023/04/04 00:10:32;;;;;;;6.20;1.13;;;;;;;;;;5024077;28;20456;-68
2023/04/04 00:12:57;;;;;;;5.83;1.30;;;;;;;;;;5023774;28;20053;-67
2023/04/04 00:15:22;;;;;;;4.15;1.20;;;;;;;;;;5024187;28;20075;-67
2023/04/04 00:17:48;;;;;;;4.80;1.30;;;;;;;;;;5022247;28;20013;-68
2023/04/04 00:20:13;;;;;;;5.88;1.52;;;;;;;;;;5026487;28;20033;-68
2023/04/04 00:22:38;;;;;;;6.00;1.37;;;;;;;;;;5012624;28;20056;-68
2023/04/04 00:25:03;;;;;;;5.20;1.20;;;;;;;;;;5028409;28;20587;-68
2023/04/04 00:27:28;;;;;;;6.40;1.60;;;;;;;;;;5027809;28;20022;-68
2023/04/04 00:29:54;;;;;;;4.87;1.20;;;;;;;;;;5026086;28;20151;-67
2023/04/04 00:32:19;;;;;;;5.60;1.42;;;;;;;;;;5022561;28;20547;-68
2023/04/04 00:34:45;;;;;;;4.63;1.40;;;;;;;;;;5023572;28;20033;-68
2023/04/04 00:37:11;;;;;;;6.37;1.40;;;;;;;;;;5025091;28;20490;-67
2023/04/04 00:39:36;;;;;;;5.25;1.40;;;;;;;;;;5030034;28;21005;-67
2023/04/04 00:42:03;;;;;;;4.55;1.30;;;;;;;;;;5030463;28;20053;-66
2023/04/04 00:44:29;;;;;;;6.30;1.60;;;;;;;;;;5021166;28;20022;-67
2023/04/04 00:46:54;;;;;;;5.22;1.30;;;;;;;;;;5022904;28;20148;-66
2023/04/04 00:49:19;;;;;;;3.53;1.10;;;;;;;;;;5021582;28;20855;-66
2023/04/04 00:51:45;;;;;;;5.27;1.53;;;;;;;;;;5029101;28;20506;-67
2023/04/04 00:54:10;;;;;;;8.70;1.30;;;;;;;;;;5027171;28;20033;-66
2023/04/04 00:56:36;;;;;;;5.57;1.10;;;;;;;;;;5026116;28;20025;-67
2023/04/04 00:59:02;;;;;;;5.00;1.45;;;;;;;;;;5022025;28;20383;-67
2023/04/04 01:01:27;;;;;;;5.80;1.30;;;;;;;;;;5019559;28;20050;-67
2023/04/04 01:03:52;;;;;;;4.70;1.40;;;;;;;;;;5022430;28;20152;-67
2023/04/04 01:06:17;;;;;;;6.27;1.47;;;;;;;;;;5029076;28;20032;-67
2023/04/04 01:08:42;;;;;;;4.43;1.33;;;;;;;;;;5021679;28;20017;-66
2023/04/04 01:11:08;;;;;;;5.53;1.30;;;;;;;;;;5027296;28;20028;-67
2023/04/04 01:13:34;;;;;;;4.10;1.33;;;;;;;;;;5020426;28;20500;-67
2023/04/04 01:15:59;;;;;;;5.47;1.20;;;;;;;;;;5020026;28;20116;-67
2023/04/04 01:18:25;;;;;;;5.85;1.30;;;;;;;;;;5015130;28;20068;-67
2023/04/04 01:21:01;;;;;;;5.07;1.40;;;;;;;;;;5013463;28;20060;-67
2023/04/04 01:23:43;;;;;;;5.30;1.38;;;;;;;;;;5016022;28;20059;-68
2023/04/04 01:26:08;;;;;;;6.05;1.30;;;;;;;;;;5019462;28;20021;-67
2023/04/04 01:28:33;;;;;;;4.22;1.40;;;;;;;;;;5027474;28;20021;-67
2023/04/04 01:31:00;;;;;;;7.30;1.70;;;;;;;;;;5018593;28;20108;-66
2023/04/04 01:33:28;;;;;;;4.40;1.38;;;;;;;;;;5028699;28;20075;-66
2023/04/04 01:36:02;;;;;;;5.68;1.42;;;;;;;;;;5031178;28;20028;-65
2023/04/04 01:38:46;;;;;;;5.40;1.30;;;;;;;;;;5028227;28;20404;-70
2023/04/04 01:41:11;;;;;;;3.97;1.30;;;;;;;;;;5028409;28;20025;-66
2023/04/04 01:43:37;;;;;;;5.28;1.38;;;;;;;;;;5029090;28;20014;-67
2023/04/04 01:46:02;;;;;;;4.85;1.15;;;;;;;;;;5026812;28;20506;-67
2023/04/04 01:48:27;;;;;;;5.20;1.40;;;;;;;;;;5021624;28;20022;-67
2023/04/04 01:50:52;;;;;;;4.50;1.30;;;;;;;;;;5017079;28;20108;-67
2023/04/04 01:53:18;;;;;;;5.33;1.40;;;;;;;;;;5026614;28;20476;-67
2023/04/04 01:55:43;;;;;;;5.47;1.30;;;;;;;;;;5015898;28;20136;-67
2023/04/04 01:58:08;;;;;;;5.25;1.10;;;;;;;;;;5023983;28;20396;-68
2023/04/04 02:00:34;;;;;;;6.30;1.47;;;;;;;;;;5019285;28;20022;-67
2023/04/04 02:02:59;;;;;;;6.43;1.50;;;;;;;;;;5021138;28;20014;-67
2023/04/04 02:05:24;;;;;;;6.63;1.65;;;;;;;;;;5021464;28;20236;-68
2023/04/04 02:07:50;;;;;;;5.63;1.40;;;;;;;;;;5027890;28;20076;-66
2023/04/04 02:10:15;;;;;;;6.13;1.58;;;;;;;;;;5019690;28;20037;-67
2023/04/04 02:12:40;;;;;;;7.13;1.30;;;;;;;;;;5025640;28;20029;-67
2023/04/04 02:15:06;;;;;;;5.17;1.33;;;;;;;;;;5024810;28;20025;-67
2023/04/04 02:17:31;;;;;;;4.87;1.23;;;;;;;;;;5026690;28;20052;-66
2023/04/04 02:19:56;;;;;;;5.93;1.88;;;;;;;;;;5025058;28;20549;-67
2023/04/04 02:22:21;;;;;;;5.50;1.30;;;;;;;;;;5025205;28;20049;-67
2023/04/04 02:24:46;;;;;;;8.13;1.60;;;;;;;;;;5027364;28;20088;-67
2023/04/04 02:27:12;;;;;;;6.90;1.50;;;;;;;;;;5030209;28;20448;-66
2023/04/04 02:29:37;;;;;;;4.15;1.08;;;;;;;;;;5030494;28;20029;-66
2023/04/04 02:32:02;;;;;;;6.68;1.60;;;;;;;;;;5024084;28;20028;-66
2023/04/04 02:34:27;;;;;;;6.17;1.40;;;;;;;;;;5027286;28;20507;-67
2023/04/04 02:36:52;;;;;;;4.53;1.35;;;;;;;;;;5019550;28;20029;-67
2023/04/04 02:39:18;;;;;;;5.82;1.60;;;;;;;;;;5022454;28;20069;-67
2023/04/04 02:41:43;;;;;;;5.30;1.50;;;;;;;;;;5028972;28;20030;-67
2023/04/04 02:44:09;;;;;;;7.30;1.45;;;;;;;;;;5029740;28;20024;-67
2023/04/04 02:46:34;;;;;;;4.80;1.40;;;;;;;;;;5028633;28;20036;-68
2023/04/04 02:49:00;;;;;;;5.17;1.43;;;;;;;;;;5033143;28;20014;-67
2023/04/04 02:51:26;;;;;;;5.40;1.48;;;;;;;;;;5027136;28;20025;-67
2023/04/04 02:53:51;;;;;;;5.55;1.40;;;;;;;;;;5029707;28;20116;-67
2023/04/04 02:56:16;;;;;;;6.03;1.40;;;;;;;;;;5020277;28;20041;-68
2023/04/04 02:58:41;;;;;;;6.78;1.50;;;;;;;;;;5025278;28;20041;-67
2023/04/04 03:01:07;;;;;;;8.15;1.65;;;;;;;;;;5027975;28;20524;-67
2023/04/04 03:03:32;;;;;;;6.03;1.60;;;;;;;;;;5021121;28;20584;-67
2023/04/04 03:05:57;;;;;;;5.82;1.40;;;;;;;;;;5027561;28;20029;-66
2023/04/04 03:08:23;;;;;;;5.38;1.60;;;;;;;;;;5021489;28;20018;-67
2023/04/04 03:10:48;;;;;;;7.55;2.10;;;;;;;;;;5021681;28;20037;-68
2023/04/04 03:13:13;;;;;;;4.70;1.50;;;;;;;;;;5029077;28;20069;-68
2023/04/04 03:15:39;;;;;;;5.87;1.30;;;;;;;;;;5024886;28;20452;-68
2023/04/04 03:18:05;;;;;;;7.07;1.63;;;;;;;;;;5029100;28;20034;-67
2023/04/04 03:20:30;;;;;;;4.90;1.25;;;;;;;;;;5019664;28;20025;-68
2023/04/04 03:22:56;;;;;;;6.55;1.30;;;;;;;;;;5021228;28;20330;-66
2023/04/04 03:25:21;;;;;;;5.95;1.48;;;;;;;;;;5025519;28;20036;-66
2023/04/04 03:27:46;;;;;;;7.97;1.60;;;;;;;;;;5024018;28;20026;-66
2023/04/04 03:30:12;;;;;;;7.82;1.73;;;;;;;;;;5031094;28;20500;-67
2023/04/04 03:32:38;;;;;;;6.77;1.60;;;;;;;;;;5030375;28;20079;-67
2023/04/04 03:35:03;;;;;;;6.20;1.60;;;;;;;;;;5024928;28;20533;-68
2023/04/04 03:37:29;;;;;;;6.10;1.80;;;;;;;;;;5018129;28;20489;-66
2023/04/04 03:39:54;;;;;;;7.80;1.70;;;;;;;;;;5030070;28;20020;-68
2023/04/04 03:42:19;;;;;;;6.35;1.42;;;;;;;;;;5025456;28;20025;-67
2023/04/04 03:44:45;;;;;;;8.20;1.60;;;;;;;;;;5028759;28;20029;-66
2023/04/04 03:47:10;;;;;;;5.68;1.58;;;;;;;;;;5025562;28;20033;-65
2023/04/04 03:49:35;;;;;;;4.93;1.40;;;;;;;;;;5029375;28;20049;-66
2023/04/04 03:52:01;;;;;;;6.37;1.50;;;;;;;;;;5023327;28;20026;-66
2023/04/04 03:54:27;;;;;;;8.85;1.52;;;;;;;;;;5032204;28;20049;-67
2023/04/04 03:56:52;;;;;;;5.43;1.40;;;;;;;;;;5036477;28;20407;-66
2023/04/04 03:59:17;;;;;;;9.23;1.85;;;;;;;;;;5035393;28;20083;-66
2023/04/04 04:01:42;;;;;;;7.60;1.80;;;;;;;;;;5026456;28;20028;-67
2023/04/04 04:04:07;;;;;;;7.60;1.52;;;;;;;;;;5029686;28;20508;-67
2023/04/04 04:06:33;;;;;;;7.75;1.70;;;;;;;;;;5030322;28;20014;-66
2023/04/04 04:08:58;;;;;;;7.97;1.65;;;;;;;;;;5023382;28;20456;-67
2023/04/04 04:11:23;;;;;;;5.57;1.50;;;;;;;;;;5017306;28;20028;-67
2023/04/04 04:13:48;;;;;;;5.07;1.40;;;;;;;;;;5022973;28;20092;-71
2023/04/04 04:16:13;;;;;;;6.55;1.65;;;;;;;;;;5026498;28;20069;-67
2023/04/04 04:18:39;;;;;;;5.57;1.40;;;;;;;;;;5022711;28;20021;-64
2023/04/04 04:21:04;;;;;;;6.13;1.67;;;;;;;;;;5030391;28;20041;-65
2023/04/04 04:23:30;;;;;;;5.85;1.70;;;;;;;;;;5022332;28;20027;-67
2023/04/04 04:25:55;;;;;;;6.73;1.60;;;;;;;;;;5022090;28;20021;-67
2023/04/04 04:28:20;;;;;;;6.80;1.53;;;;;;;;;;5026205;28;20541;-65
2023/04/04 04:30:46;;;;;;;6.28;1.70;;;;;;;;;;5029387;28;20024;-68
2023/04/04 04:33:11;;;;;;;5.25;1.40;;;;;;;;;;5028259;28;20116;-66
2023/04/04 04:35:39;;;;;;;4.80;1.50;;;;;;;;;;5023796;28;20389;-64
2023/04/04 04:38:05;;;;;;;6.28;1.58;;;;;;;;;;5025393;28;20690;-66
2023/04/04 04:40:31;;;;;;;7.38;1.70;;;;;;;;;;5018146;28;20100;-64
2023/04/04 04:42:56;;;;;;;7.22;1.77;;;;;;;;;;5027776;28;20579;-67
2023/04/04 04:45:21;;;;;;;5.75;1.90;;;;;;;;;;5017576;28;20022;-67
2023/04/04 04:47:46;;;;;;;7.00;1.67;;;;;;;;;;5022328;28;20037;-66
2023/04/04 04:50:12;;;;;;;6.30;1.80;;;;;;;;;;5020197;28;20037;-67
2023/04/04 04:52:37;;;;;;;6.20;1.90;;;;;;;;;;5023253;28;20037;-66
2023/04/04 04:55:02;;;;;;;5.55;1.52;;;;;;;;;;5023448;28;20029;-66
2023/04/04 04:57:28;;;;;;;6.97;1.70;;;;;;;;;;5018504;28;20769;-64
2023/04/04 04:59:53;;;;;;;6.03;1.70;;;;;;;;;;5015698;28;20477;-66
2023/04/04 05:02:18;;;;;;;8.63;1.90;;;;;;;;;;5020635;28;20067;-67
2023/04/04 05:04:44;;;;;;;8.05;1.50;;;;;;;;;;5022692;28;20105;-67
2023/04/04 05:07:11;;;;;;;10.13;2.03;;;;;;;;;;5013163;28;20006;-66
2023/04/04 05:09:36;;;;;;;6.18;1.58;;;;;;;;;;5020234;28;20140;-66
2023/04/04 05:12:02;;;;;;;8.18;1.88;;;;;;;;;;5022314;28;20163;-66
2023/04/04 05:14:27;;;;;;;5.33;1.70;;;;;;;;;;5013003;28;20087;-66
2023/04/04 05:16:52;;;;;;;6.63;2.13;;;;;;;;;;5013428;28;20025;-66
2023/04/04 05:19:17;;;;;;;6.50;1.77;;;;;;;;;;5026640;28;20060;-67
2023/04/04 05:21:42;;;;;;;5.13;1.40;;;;;;;;;;5028514;28;20107;-67
2023/04/04 05:24:08;;;;;;;5.40;1.63;;;;;;;;;;5022976;28;20464;-67
2023/04/04 05:26:33;;;;;;;7.60;1.70;;;;;;;;;;5030924;28;20024;-65
2023/04/04 05:28:58;;;;;;;6.05;1.52;;;;;;;;;;5029658;28;20505;-67
2023/04/04 05:31:23;;;;;;;7.15;1.48;;;;;;;;;;5030059;28;20037;-67
2023/04/04 05:33:48;;;;;;;5.77;1.80;;;;;;;;;;5029483;28;20042;-67
2023/04/04 05:36:14;;;;;;;8.27;1.60;;;;;;;;;;5027799;28;20510;-67
2023/04/04 05:38:40;;;;;;;7.95;1.55;;;;;;;;;;5017194;28;20433;-67
2023/04/04 05:41:05;;;;;;;4.25;1.40;;;;;;;;;;5018983;28;20021;-66
2023/04/04 05:43:30;;;;;;;7.97;1.63;;;;;;;;;;5011362;28;20026;-67
2023/04/04 05:45:55;;;;;;;7.45;1.70;;;;;;;;;;5011084;28;20021;-66
2023/04/04 05:48:20;;;;;;;8.02;1.60;;;;;;;;;;5011296;28;20496;-67
2023/04/04 05:50:46;;;;;;;6.03;1.70;;;;;;;;;;5017406;28;20054;-66
2023/04/04 05:53:11;;;;;;;8.27;1.70;;;;;;;;;;5018629;28;20033;-67
2023/04/04 05:55:36;;;;;;;6.63;1.60;;;;;;;;;;5013635;28;20025;-66
2023/04/04 05:58:01;;;;;;;9.33;1.87;;;;;;;;;;5011927;28;20018;-67
2023/04/04 06:00:26;;;;;;;5.83;1.57;;;;;;;;;;5014550;28;20029;-66
2023/04/04 06:02:52;;;;;;;6.67;1.70;;;;;;;;;;5014226;28;20030;-65
2023/04/04 06:05:17;;;;;;;6.13;1.42;;;;;;;;;;5013799;28;20022;-66
2023/04/04 06:07:42;;;;;;;5.65;1.40;;;;;;;;;;5022896;28;20050;-67
2023/04/04 06:10:08;;;;;;;8.35;1.90;;;;;;;;;;5031688;28;20021;-66
2023/04/04 06:12:33;;;;;;;4.70;1.90;;;;;;;;;;5031601;28;20106;-66
2023/04/04 06:14:58;;;;;;;4.68;1.50;;;;;;;;;;5030295;28;20036;-65
2023/04/04 06:17:23;;;;;;;6.72;1.88;;;;;;;;;;5015235;28;20014;-67
2023/04/04 06:19:48;;;;;;;6.43;1.70;;;;;;;;;;5018980;28;20097;-66
2023/04/04 06:22:16;;;;;;;5.77;1.73;;;;;;;;;;5016775;28;20017;-66
2023/04/04 06:24:41;;;;;;;5.90;1.55;;;;;;;;;;5020949;28;20068;-66
2023/04/04 06:27:07;;;;;;;5.43;1.63;;;;;;;;;;5029861;28;20385;-68
2023/04/04 06:29:33;;;;;;;5.55;1.52;;;;;;;;;;5034856;28;20076;-66
2023/04/04 06:31:58;;;;;;;6.38;1.75;;;;;;;;;;5036299;28;20018;-67
2023/04/04 06:34:23;;;;;;;4.80;1.80;;;;;;;;;;5032902;28;20112;-68
2023/04/04 06:36:48;;;;;;;5.43;1.73;;;;;;;;;;5018153;28;20455;-66
2023/04/04 06:39:13;;;;;;;9.07;2.00;;;;;;;;;;5029281;28;20017;-67
2023/04/04 06:41:38;;;;;;;9.60;1.73;;;;;;;;;;5031297;28;20111;-67
2023/04/04 06:44:04;;;;;;;6.27;1.80;;;;;;;;;;5029196;28;20105;-67
2023/04/04 06:46:31;;;;;;;5.82;1.80;;;;;;;;;;5027560;28;20485;-66
2023/04/04 06:48:57;;;;;;;7.13;1.80;;;;;;;;;;5032200;28;20009;-66
2023/04/04 06:51:22;;;;;;;6.20;1.60;;;;;;;;;;5028096;28;20088;-67
2023/04/04 06:53:47;;;;;;;6.07;1.87;;;;;;;;;;5021738;28;20045;-66
2023/04/04 06:56:12;;;;;;;6.00;1.70;;;;;;;;;;5025472;28;20032;-67
2023/04/04 06:58:38;;;;;;;6.88;1.92;;;;;;;;;;5032802;28;20064;-67
2023/04/04 07:01:03;;;;;;;6.45;1.65;;;;;;;;;;5033365;28;20029;-67
2023/04/04 07:03:29;;;;;;;6.70;1.90;;;;;;;;;;5032793;28;20017;-67
2023/04/04 07:05:54;;;;;;;6.80;1.65;;;;;;;;;;5023361;28;20558;-67
2023/04/04 07:08:20;;;;;;;7.38;2.25;;;;;;;;;;5024353;28;20033;-67
2023/04/04 07:10:45;;;;;;;7.53;1.83;;;;;;;;;;5020804;28;20389;-67
2023/04/04 07:13:10;;;;;;;6.72;1.80;;;;;;;;;;5033058;28;21005;-67
2023/04/04 07:15:35;;;;;;;6.10;1.50;;;;;;;;;;5033099;28;20021;-67
2023/04/04 07:18:00;;;;;;;5.83;1.60;;;;;;;;;;5031623;28;20101;-66
2023/04/04 07:20:27;;;;;;;5.40;1.70;;;;;;;;;;5024840;28;20448;-66
2023/04/04 07:22:52;;;;;;;7.32;1.70;;;;;;;;;;5024442;28;20134;-68
2023/04/04 07:25:17;;;;;;;6.00;1.60;;;;;;;;;;5021149;28;20025;-66
2023/04/04 07:27:42;;;;;;;5.78;1.60;;;;;;;;;;5020195;28;20088;-65
2023/04/04 07:30:08;;;;;;;5.32;1.50;;;;;;;;;;5012806;28;20026;-65
2023/04/04 07:32:33;;;;;;;5.72;1.55;;;;;;;;;;5012550;28;20014;-67
2023/04/04 07:34:58;;;;;;;7.78;1.70;;;;;;;;;;5018877;28;20021;-67
2023/04/04 07:37:25;;;;;;;5.22;1.42;;;;;;;;;;5020054;28;20029;-66
2023/04/04 07:39:50;;;;;;;6.45;1.70;;;;;;;;;;5031314;28;20032;-67
2023/04/04 07:42:21;;;;;;;4.80;1.60;;;;;;;;;;5022469;28;20021;-67
2023/04/04 07:44:46;;;;;;;7.80;1.92;;;;;;;;;;5012852;28;20076;-66
2023/04/04 07:47:12;;;;;;;6.47;1.45;;;;;;;;;;5012486;28;20025;-67
2023/04/04 07:49:37;;;;;;;4.78;1.50;;;;;;;;;;5015038;28;20040;-67
2023/04/04 07:52:03;;;;;;;6.80;1.73;;;;;;;;;;5023672;28;20021;-66
2023/04/04 07:54:28;;;;;;;5.80;1.77;;;;;;;;;;5017784;28;20108;-64
2023/04/04 07:56:53;;;;;;;6.05;1.70;;;;;;;;;;5019756;28;20474;-65
2023/04/04 07:59:18;;;;;;;5.03;1.40;;;;;;;;;;5012543;28;20026;-65
2023/04/04 08:01:43;;;;;;;4.43;1.40;;;;;;;;;;5012466;28;20025;-67
2023/04/04 08:04:09;;;;;;;5.00;1.42;;;;;;;;;;5012328;28;20509;-66
2023/04/04 08:06:35;;;;;;;5.88;1.30;;;;;;;;;;5020314;28;20021;-67
2023/04/04 08:09:00;;;;;;;4.72;1.58;;;;;;;;;;5018778;28;20025;-67
2023/04/04 08:11:26;;;;;;;4.95;1.20;;;;;;;;;;5020247;28;20492;-66
2023/04/04 08:13:51;;;;;;;6.55;1.48;;;;;;;;;;5011686;28;20030;-66
2023/04/04 08:16:16;;;;;;;4.07;1.25;;;;;;;;;;5012091;28;20026;-66
2023/04/04 08:18:41;;;;;;;4.73;1.13;;;;;;;;;;5011408;28;20416;-67
2023/04/04 08:21:07;;;;;;;4.50;1.17;;;;;;;;;;5027551;28;20029;-67
2023/04/04 08:23:32;;;;;;;4.23;1.00;;;;;;;;;;5026929;28;20018;-65
2023/04/04 08:25:58;;;;;;;4.70;1.10;;;;;;;;;;5019547;28;20460;-67
2023/04/04 08:28:24;;;;;;;5.43;1.10;;;;;;;;;;5025402;28;20057;-66
2023/04/04 08:30:51;;;;;;;3.97;1.07;;;;;;;;;;5031154;28;20052;-67
2023/04/04 08:33:16;;;;;;;5.28;1.10;;;;;;;;;;5022289;28;20029;-64
2023/04/04 08:35:41;;;;;;;5.13;1.40;;;;;;;;;;5015550;28;20128;-67
2023/04/04 08:38:07;;;;;;;5.25;1.40;;;;;;;;;;5029117;28;20475;-67
2023/04/04 08:40:32;;;;;;;3.80;1.20;;;;;;;;;;5019904;28;20096;-66
2023/04/04 08:42:58;;;;;;;3.07;0.70;;;;;;;;;;5012238;28;20029;-66
2023/04/04 08:45:24;;;;;;;4.22;0.77;;;;;;;;;;5012106;28;20045;-67
2023/04/04 08:47:50;;;;;;;3.38;0.88;;;;;;;;;;5010956;28;20052;-66
2023/04/04 08:50:16;;;;;;;3.65;0.93;;;;;;;;;;5030518;28;20056;-66
2023/04/04 08:52:42;;;;;;;3.13;0.88;;;;;;;;;;5026992;28;20069;-67
2023/04/04 08:55:08;;;;;;;3.05;0.80;;;;;;;;;;5035738;28;20013;-67
2023/04/04 08:57:33;;;;;;;3.20;0.80;;;;;;;;;;5035958;28;20026;-67
2023/04/04 08:59:59;;;;;;;4.33;1.17;;;;;;;;;;5036813;28;20044;-66
2023/04/04 09:02:30;;;;;;;4.27;0.90;;;;;;;;;;5035545;28;20404;-66
2023/04/04 09:04:56;;;;;;;6.13;1.20;;;;;;;;;;5030997;28;20045;-65
2023/04/04 09:07:22;;;;;;;3.83;0.85;;;;;;;;;;5027388;28;20503;-66
2023/04/04 09:09:48;;;;;;;4.22;0.95;;;;;;;;;;5018050;28;20025;-66
2023/04/04 09:12:14;;;;;;;4.40;0.77;;;;;;;;;;5030640;28;20100;-67
2023/04/04 09:14:40;;;;;;;4.03;0.80;;;;;;;;;;5030060;28;20053;-67
2023/04/04 09:17:07;;;;;;;2.40;0.75;;;;;;;;;;5030001;28;20036;-67
2023/04/04 09:19:32;;;;;;;3.60;0.73;;;;;;;;;;5031200;28;20508;-64
2023/04/04 09:21:57;;;;;;;3.60;0.85;;;;;;;;;;5021880;28;20033;-68
2023/04/04 09:24:22;;;;;;;3.25;0.70;;;;;;;;;;5018628;28;20049;-68
2023/04/04 09:26:48;;;;;;;3.47;0.95;;;;;;;;;;5012263;28;20022;-67
2023/04/04 09:29:16;;;;;;;2.47;0.90;;;;;;;;;;5026392;28;20041;-65
2023/04/04 09:31:45;;;;;;;4.63;0.80;;;;;;;;;;5023689;28;20150;-65
2023/04/04 09:34:10;;;;;;;3.90;0.90;;;;;;;;;;5028504;28;20069;-66
2023/04/04 09:36:36;;;;;;;3.67;0.90;;;;;;;;;;5026884;28;20049;-65
2023/04/04 09:39:01;;;;;;;3.38;0.90;;;;;;;;;;5021999;28;20029;-68
2023/04/04 09:41:26;;;;;;;3.45;0.80;;;;;;;;;;5019188;28;20033;-66
2023/04/04 09:43:52;;;;;;;3.88;0.77;;;;;;;;;;5028107;28;20053;-67
2023/04/04 09:46:20;;;;;;;4.60;0.80;;;;;;;;;;5026301;28;20083;-67
2023/04/04 09:48:52;;;;;;;3.60;0.80;;;;;;;;;;5034176;28;20037;-65
2023/04/04 09:51:17;;;;;;;4.65;0.80;;;;;;;;;;5032106;28;20096;-67
2023/04/04 09:53:46;;;;;;;2.13;0.70;;;;;;;;;;5027842;28;20159;-65
2023/04/04 09:56:11;;;;;;;4.22;1.00;;;;;;;;;;5034045;28;20095;-65
2023/04/04 09:58:37;;;;;;;3.90;0.90;;;;;;;;;;5026796;28;20041;-66
2023/04/04 10:01:03;;;;;;;3.50;0.77;;;;;;;;;;5018354;28;20109;-65
2023/04/04 10:03:29;;;;;;;2.67;0.60;;;;;;;;;;5024968;28;20014;-66
2023/04/04 10:05:56;;;;;;;3.03;0.70;;;;;;;;;;5033426;28;20021;-65
2023/04/04 10:08:21;;;;;;;2.90;0.70;;;;;;;;;;5025283;28;20026;-67
2023/04/04 10:10:50;;;;;;;4.90;0.83;;;;;;;;;;5033544;28;20018;-66
2023/04/04 10:13:22;;;;;;;3.33;0.85;;;;;;;;;;5029425;28;20025;-66
2023/04/04 10:15:47;;;;;;;2.58;0.60;;;;;;;;;;5027826;28;20033;-66
2023/04/04 10:18:13;;;;;;;3.83;0.90;;;;;;;;;;5013555;28;20393;-66
2023/04/04 10:20:38;;;;;;;3.47;0.90;;;;;;;;;;5013910;28;20056;-67
2023/04/04 10:23:04;;;;;;;2.92;1.00;;;;;;;;;;5029984;28;20033;-66
2023/04/04 10:25:30;;;;;;;8.27;0.80;;;;;;;;;;5027328;28;20053;-67
2023/04/04 10:27:55;;;;;;;4.72;1.10;;;;;;;;;;5033128;28;20029;-66
2023/04/04 10:30:20;;;;;;;3.90;1.00;;;;;;;;;;5023480;28;20026;-65
2023/04/04 10:33:05;;;;;;;3.03;0.70;;;;;;;;;;5028271;28;20133;-67
2023/04/04 10:35:31;;;;;;;4.90;0.90;;;;;;;;;;5027829;28;20572;-64
2023/04/04 10:37:57;;;;;;;3.63;0.80;;;;;;;;;;5037691;28;20549;-65
2023/04/04 10:40:23;;;;;;;3.58;0.70;;;;;;;;;;5018725;28;20080;-64
2023/04/04 10:42:48;;;;;;;3.38;0.75;;;;;;;;;;5021898;28;20498;-68
2023/04/04 10:45:15;;;;;;;2.90;0.85;;;;;;;;;;5013335;28;20076;-67
2023/04/04 10:47:40;;;;;;;1.98;0.60;;;;;;;;;;5013393;28;20022;-68
2023/04/04 10:50:08;;;;;;;4.55;0.70;;;;;;;;;;5031304;28;20029;-67
2023/04/04 10:52:33;;;;;;;2.40;0.57;;;;;;;;;;5024582;28;20040;-66
2023/04/04 10:55:03;;;;;;;2.60;0.80;;;;;;;;;;5033279;28;20029;-66
2023/04/04 10:57:29;;;;;;;5.25;0.90;;;;;;;;;;5032576;28;20020;-67
2023/04/04 10:59:59;;;;;;;2.55;0.70;;;;;;;;;;5033089;28;20389;-67
2023/04/04 11:02:43;;;;;;;3.75;0.90;;;;;;;;;;5029032;28;20087;-65
2023/04/04 11:05:25;;;;;;;2.95;0.82;;;;;;;;;;5023251;28;20509;-65
2023/04/04 11:07:53;;;;;;;4.35;0.80;;;;;;;;;;5027636;28;20506;-64
2023/04/04 11:10:21;;;;;;;3.60;0.80;;;;;;;;;;5033167;28;20025;-65
2023/04/04 11:12:53;;;;;;;4.43;0.98;;;;;;;;;;5033100;28;20029;-66
2023/04/04 11:15:20;;;;;;;3.15;0.63;;;;;;;;;;5033122;28;20397;-66
2023/04/04 11:17:48;;;;;;;2.33;0.70;;;;;;;;;;5033950;28;20018;-67
2023/04/04 11:20:14;;;;;;;3.13;0.75;;;;;;;;;;5031557;28;20032;-64
2023/04/04 11:22:40;;;;;;;3.20;0.80;;;;;;;;;;5016352;28;20037;-65
2023/04/04 11:25:23;;;;;;;2.50;0.70;;;;;;;;;;5025102;28;20101;-67
2023/04/04 11:27:50;;;;;;;3.05;0.82;;;;;;;;;;5035343;28;20505;-66
2023/04/04 11:30:15;;;;;;;2.78;0.80;;;;;;;;;;5036666;28;20017;-65
2023/04/04 11:32:42;;;;;;;3.58;0.80;;;;;;;;;;5030816;28;20025;-67
2023/04/04 11:35:07;;;;;;;3.55;0.73;;;;;;;;;;5022107;28;20013;-67
2023/04/04 11:37:41;;;;;;;3.23;0.70;;;;;;;;;;5016012;28;20021;-65
2023/04/04 11:40:11;;;;;;;3.53;0.70;;;;;;;;;;5022249;28;20022;-68
2023/04/04 11:42:38;;;;;;;3.53;0.80;;;;;;;;;;5019422;28;20020;-66
2023/04/04 11:45:05;;;;;;;3.08;0.70;;;;;;;;;;5012390;28;20029;-67
2023/04/04 11:47:31;;;;;;;5.75;1.00;;;;;;;;;;5011934;28;20052;-67
2023/04/04 11:49:57;;;;;;;3.00;0.80;;;;;;;;;;5015300;28;20045;-67
2023/04/04 11:52:24;;;;;;;4.10;0.90;;;;;;;;;;5031118;28;20048;-67
2023/04/04 11:54:49;;;;;;;2.80;0.80;;;;;;;;;;5031647;28;20515;-67
2023/04/04 11:57:15;;;;;;;3.90;0.70;;;;;;;;;;5031343;28;20053;-67
2023/04/04 11:59:50;;;;;;;3.20;0.82;;;;;;;;;;5032192;28;20018;-68
2023/04/04 12:02:18;;;;;;;3.00;0.82;;;;;;;;;;5029225;28;20017;-67
2023/04/04 12:04:44;;;;;;;3.13;0.93;;;;;;;;;;5017284;28;20090;-67
2023/04/04 12:07:11;;;;;;;2.78;0.80;;;;;;;;;;5031202;28;20021;-66
2023/04/04 12:09:37;;;;;;;3.25;0.90;;;;;;;;;;5032281;28;20409;-66
2023/04/04 12:12:02;;;;;;;4.85;0.90;;;;;;;;;;5031855;28;20219;-67
2023/04/04 12:14:27;;;;;;;4.40;1.10;;;;;;;;;;5031511;28;20040;-67
2023/04/04 12:16:54;;;;;;;3.17;0.90;;;;;;;;;;5030097;28;20467;-66
2023/04/04 12:19:21;;;;;;;2.92;0.88;;;;;;;;;;5014885;28;20032;-65
2023/04/04 12:21:47;;;;;;;2.97;0.88;;;;;;;;;;5020160;28;20025;-67
2023/04/04 12:24:12;;;;;;;3.83;0.90;;;;;;;;;;5011941;28;20491;-67
2023/04/04 12:26:39;;;;;;;3.70;0.80;;;;;;;;;;5011951;28;20049;-66
2023/04/04 12:29:04;;;;;;;3.60;0.88;;;;;;;;;;5011465;28;20495;-67
2023/04/04 12:31:30;;;;;;;2.42;0.80;;;;;;;;;;5013155;28;20026;-67
2023/04/04 12:33:56;;;;;;;3.20;1.08;;;;;;;;;;5026326;28;20025;-66
2023/04/04 12:36:24;;;;;;;4.30;0.85;;;;;;;;;;5023950;28;20082;-65
2023/04/04 12:39:15;;;;;;;2.75;0.88;;;;;;;;;;5029684;28;20079;-67
2023/04/04 12:41:51;;;;;;;3.45;0.90;;;;;;;;;;5030268;28;20043;-66
2023/04/04 12:44:29;;;;;;;3.17;0.90;;;;;;;;;;5022193;28;20049;-65
2023/04/04 12:46:56;;;;;;;4.03;0.80;;;;;;;;;;5018825;28;20044;-66
2023/04/04 12:49:21;;;;;;;5.68;1.90;;;;;;;;;;5019849;28;20026;-66
2023/04/04 12:51:46;;;;;;;3.37;0.90;;;;;;;;;;5011572;28;20121;-66
2023/04/04 12:54:24;;;;;;;2.53;0.80;;;;;;;;;;5027134;28;20113;-66
2023/04/04 12:56:53;;;;;;;2.70;0.88;;;;;;;;;;5026564;28;20075;-66
2023/04/04 12:59:20;;;;;;;4.60;1.13;;;;;;;;;;5023412;28;20024;-66
2023/04/04 13:01:45;;;;;;;4.88;1.10;;;;;;;;;;5022791;28;20022;-66
2023/04/04 13:04:13;;;;;;;4.00;0.90;;;;;;;;;;5028680;28;20546;-67
2023/04/04 13:06:39;;;;;;;4.15;1.00;;;;;;;;;;5024776;28;20016;-67
2023/04/04 13:09:06;;;;;;;2.33;0.70;;;;;;;;;;5031161;28;20481;-66
2023/04/04 13:11:50;;;;;;;3.80;0.90;;;;;;;;;;5036737;28;20055;-65
2023/04/04 13:14:16;;;;;;;3.35;1.00;;;;;;;;;;5041240;28;20025;-65
2023/04/04 13:16:41;;;;;;;3.15;0.88;;;;;;;;;;5035232;28;20032;-66
2023/04/04 13:19:06;;;;;;;3.13;0.80;;;;;;;;;;5033147;28;20579;-67
2023/04/04 13:21:31;;;;;;;2.45;0.75;;;;;;;;;;5020331;28;20021;-66
2023/04/04 13:23:56;;;;;;;3.63;0.90;;;;;;;;;;5016784;28;20026;-67
2023/04/04 13:26:22;;;;;;;4.70;1.00;;;;;;;;;;5013087;28;20483;-65
2023/04/04 13:28:47;;;;;;;3.75;0.80;;;;;;;;;;5024909;28;20021;-66
2023/04/04 13:31:14;;;;;;;3.93;0.83;;;;;;;;;;5028275;28;20044;-65
2023/04/04 13:33:39;;;;;;;3.15;0.75;;;;;;;;;;5012525;28;20053;-66
2023/04/04 13:36:05;;;;;;;4.33;0.80;;;;;;;;;;5025152;28;20029;-67
2023/04/04 13:38:30;;;;;;;2.72;0.70;;;;;;;;;;5022273;28;20328;-66
2023/04/04 13:40:56;;;;;;;3.40;0.82;;;;;;;;;;5020550;28;20029;-67
2023/04/04 13:43:22;;;;;;;4.43;0.90;;;;;;;;;;5021976;28;20053;-67
2023/04/04 13:45:47;;;;;;;4.35;1.00;;;;;;;;;;5020288;28;20021;-65
2023/04/04 13:48:12;;;;;;;2.60;0.70;;;;;;;;;;5011684;28;20038;-64
2023/04/04 13:50:38;;;;;;;3.63;0.67;;;;;;;;;;5017466;28;20515;-64
2023/04/04 13:53:03;;;;;;;3.45;0.80;;;;;;;;;;5013901;28;20053;-65
2023/04/04 13:55:28;;;;;;;2.60;0.60;;;;;;;;;;5018928;28;20014;-65
2023/04/04 13:57:54;;;;;;;3.70;0.80;;;;;;;;;;5011251;28;20018;-67
2023/04/04 14:00:19;;;;;;;4.43;0.70;;;;;;;;;;5017821;28;20033;-66
2023/04/04 14:02:45;;;;;;;3.70;0.70;;;;;;;;;;5020463;28;20021;-67
2023/04/04 14:05:10;;;;;;;2.63;0.75;;;;;;;;;;5028500;28;20845;-67
2023/04/04 14:07:37;;;;;;;3.75;0.77;;;;;;;;;;5018702;28;20088;-66
2023/04/04 14:10:02;;;;;;;2.67;0.70;;;;;;;;;;5020659;28;20068;-67
2023/04/04 14:12:27;;;;;;;4.25;1.00;;;;;;;;;;5022055;28;20600;-67
2023/04/04 14:14:52;;;;;;;4.23;0.90;;;;;;;;;;5029179;28;20033;-66
2023/04/04 14:17:17;;;;;;;5.45;1.15;;;;;;;;;;5013641;28;20037;-66
2023/04/04 14:19:43;;;;;;;3.67;0.90;;;;;;;;;;5028072;28;20025;-66
2023/04/04 14:22:08;;;;;;;2.80;0.70;;;;;;;;;;5033394;28;20101;-66
2023/04/04 14:24:33;;;;;;;4.93;0.97;;;;;;;;;;5034230;28;20049;-66
2023/04/04 14:26:58;;;;;;;3.43;1.07;;;;;;;;;;5033456;28;20460;-65
2023/04/04 14:29:23;;;;;;;2.38;0.57;;;;;;;;;;5033094;28;20021;-66
2023/04/04 14:31:49;;;;;;;4.37;0.90;;;;;;;;;;5028390;28;20477;-66
2023/04/04 14:34:14;;;;;;;2.53;0.70;;;;;;;;;;5027934;28;20029;-67
2023/04/04 14:36:40;;;;;;;3.47;0.70;;;;;;;;;;5013617;28;20018;-67